createdAt,value
2023-01-10T00:00:31.683Z,82.84
2023-01-10T00:02:58.262Z,81.55
2023-01-10T00:05:24.765Z,81.33
2023-01-10T00:07:51.224Z,80.96
2023-01-10T00:10:17.891Z,80.16
2023-01-10T00:12:44.827Z,79.12
2023-01-10T00:15:11.291Z,78.64
2023-01-10T00:17:37.809Z,80.33
2023-01-10T00:20:04.579Z,77.32
2023-01-10T00:22:31.107Z,77.66
2023-01-10T00:24:57.563Z,76.63
2023-01-10T00:27:24.036Z,78.04
2023-01-10T00:29:51.093Z,79.52
2023-01-10T00:32:18.504Z,79.16
2023-01-10T00:34:45.226Z,78.21
2023-01-10T00:37:11.674Z,77.44
2023-01-10T00:39:38.116Z,77.29
2023-01-10T00:42:04.999Z,78.13
2023-01-10T00:44:31.585Z,76.89
2023-01-10T00:46:58.052Z,78.22
2023-01-10T00:49:24.566Z,80.22
2023-01-10T00:51:51.028Z,79.72
2023-01-10T00:54:17.569Z,77.85
2023-01-10T00:56:44.091Z,78.30
2023-01-10T00:59:10.536Z,78.17
2023-01-10T01:01:37.111Z,78.12
2023-01-10T01:04:03.736Z,78.19
2023-01-10T01:06:30.278Z,77.16
2023-01-10T01:08:56.748Z,77.76
2023-01-10T01:11:23.349Z,76.69
2023-01-10T01:13:49.851Z,75.67
2023-01-10T01:16:17.405Z,77.00
2023-01-10T01:18:44.072Z,78.32
2023-01-10T01:21:10.504Z,78.29
2023-01-10T01:23:37.071Z,79.72
2023-01-10T01:26:03.685Z,77.88
2023-01-10T01:28:30.129Z,77.01
2023-01-10T01:30:56.590Z,76.39
2023-01-10T01:33:23.224Z,75.59
2023-01-10T01:35:49.928Z,73.21
2023-01-10T01:38:17.568Z,73.45
2023-01-10T01:40:44.226Z,75.32
2023-01-10T01:43:27.608Z,72.78
2023-01-10T01:45:55.525Z,75.58
2023-01-10T01:48:43.758Z,76.78
2023-01-10T01:51:18.361Z,80.84
2023-01-10T01:54:00.188Z,80.02
2023-01-10T01:56:46.054Z,79.46
2023-01-10T01:59:30.594Z,79.59
2023-01-10T02:02:05.182Z,80.56
2023-01-10T02:04:41.647Z,79.54
2023-01-10T02:07:10.209Z,82.46
2023-01-10T02:09:48.658Z,81.26
2023-01-10T02:12:15.681Z,80.61
2023-01-10T02:14:45.018Z,79.66
2023-01-10T02:17:11.998Z,80.58
2023-01-10T02:19:56.608Z,79.53
2023-01-10T02:22:54.038Z,80.17
2023-01-10T02:26:04.023Z,81.15
2023-01-10T02:28:44.136Z,81.05
2023-01-10T02:31:19.512Z,79.17
2023-01-10T02:33:57.237Z,79.53
2023-01-10T02:36:35.774Z,80.80
2023-01-10T02:39:10.987Z,80.13
2023-01-10T02:41:51.540Z,81.68
2023-01-10T02:44:25.540Z,78.44
2023-01-10T02:46:52.078Z,77.24
2023-01-10T02:49:18.734Z,79.03
2023-01-10T02:51:45.234Z,80.21
2023-01-10T02:54:22.226Z,79.04
2023-01-10T02:56:51.454Z,79.00
2023-01-10T02:59:30.029Z,77.40
2023-01-10T03:02:07.978Z,76.56
2023-01-10T03:04:52.637Z,79.30
2023-01-10T03:07:28.097Z,79.84
2023-01-10T03:10:19.003Z,79.74
2023-01-10T03:13:00.269Z,77.50
2023-01-10T03:15:33.551Z,78.67
2023-01-10T03:18:05.197Z,79.78
2023-01-10T03:20:37.192Z,78.62
2023-01-10T03:23:06.304Z,79.05
2023-01-10T03:25:37.857Z,78.33
2023-01-10T03:28:16.174Z,77.06
2023-01-10T03:30:54.633Z,77.14
2023-01-10T03:33:27.920Z,76.48
2023-01-10T03:36:08.459Z,74.22
2023-01-10T03:38:52.845Z,75.39
2023-01-10T03:41:47.396Z,74.20
2023-01-10T03:44:27.086Z,74.55
2023-01-10T03:46:58.145Z,73.22
2023-01-10T03:49:27.828Z,72.42
2023-01-10T03:51:57.973Z,72.32
2023-01-10T03:54:24.994Z,72.26
2023-01-10T03:56:52.012Z,71.72
2023-01-10T03:59:23.570Z,69.05
2023-01-10T04:01:50.677Z,69.04
2023-01-10T04:04:17.305Z,69.27
2023-01-10T04:06:44.421Z,69.62
2023-01-10T04:09:11.250Z,69.12
2023-01-10T04:11:37.770Z,69.19
2023-01-10T04:14:04.366Z,70.86
2023-01-10T04:16:31.464Z,70.58
2023-01-10T04:18:57.936Z,72.42
2023-01-10T04:21:24.390Z,71.82
2023-01-10T04:23:50.846Z,70.94
2023-01-10T04:26:17.321Z,70.75
2023-01-10T04:28:43.773Z,72.45
2023-01-10T04:31:10.404Z,73.56
2023-01-10T04:33:36.869Z,73.10
2023-01-10T04:36:03.415Z,71.90
2023-01-10T04:38:29.971Z,72.30
2023-01-10T04:40:57.173Z,71.58
2023-01-10T04:43:26.629Z,70.73
2023-01-10T04:45:53.231Z,71.56
2023-01-10T04:48:19.913Z,71.57
2023-01-10T04:50:53.923Z,71.07
2023-01-10T04:53:20.938Z,70.61
2023-01-10T04:55:47.956Z,69.25
2023-01-10T04:58:14.689Z,69.10
2023-01-10T05:00:41.364Z,70.14
2023-01-10T05:03:07.939Z,69.98
2023-01-10T05:05:34.528Z,70.68
2023-01-10T05:08:01.038Z,70.97
2023-01-10T05:10:27.566Z,70.15
2023-01-10T05:12:54.040Z,70.71
2023-01-10T05:15:20.480Z,70.73
2023-01-10T05:17:46.924Z,71.66
2023-01-10T05:20:13.394Z,71.39
2023-01-10T05:22:40.673Z,71.08
2023-01-10T05:25:07.385Z,70.44
2023-01-10T05:27:33.845Z,70.94
2023-01-10T05:30:00.327Z,71.43
2023-01-10T05:32:29.823Z,71.12
2023-01-10T05:34:56.762Z,70.07
2023-01-10T05:37:23.268Z,68.12
2023-01-10T05:39:49.823Z,68.51
2023-01-10T05:42:16.321Z,68.86
2023-01-10T05:44:42.767Z,68.77
2023-01-10T05:47:09.217Z,69.09
2023-01-10T05:49:35.662Z,69.23
2023-01-10T05:52:02.134Z,67.64
2023-01-10T05:54:28.643Z,67.71
2023-01-10T05:56:55.357Z,69.00
2023-01-10T05:59:28.122Z,68.34
2023-01-10T06:01:55.028Z,67.23
2023-01-10T06:04:21.505Z,69.23
2023-01-10T06:06:47.990Z,68.92
2023-01-10T06:09:14.495Z,69.12
2023-01-10T06:11:40.977Z,68.53
2023-01-10T06:14:07.427Z,67.93
2023-01-10T06:16:33.943Z,69.86
2023-01-10T06:19:00.467Z,68.35
2023-01-10T06:21:27.064Z,69.28
2023-01-10T06:23:53.547Z,69.78
2023-01-10T06:26:19.996Z,69.72
2023-01-10T06:28:46.441Z,71.49
2023-01-10T06:31:13.040Z,70.95
2023-01-10T06:33:39.548Z,70.29
2023-01-10T06:36:06.504Z,70.14
2023-01-10T06:38:32.971Z,70.03
2023-01-10T06:40:59.437Z,70.31
2023-01-10T06:43:26.100Z,71.15
2023-01-10T06:45:52.614Z,72.48
2023-01-10T06:48:19.089Z,71.80
2023-01-10T06:50:45.540Z,74.00
2023-01-10T06:53:12.022Z,75.91
2023-01-10T06:55:38.460Z,77.14
2023-01-10T06:58:04.996Z,76.73
2023-01-10T07:00:31.903Z,75.78
2023-01-10T07:02:59.361Z,77.13
2023-01-10T07:05:25.844Z,77.11
2023-01-10T07:07:52.365Z,77.60
2023-01-10T07:10:18.912Z,78.20
2023-01-10T07:12:45.405Z,77.76
2023-01-10T07:15:11.859Z,76.09
2023-01-10T07:17:38.341Z,75.67
2023-01-10T07:20:05.201Z,75.18
2023-01-10T07:22:31.650Z,74.57
2023-01-10T07:24:58.105Z,75.27
2023-01-10T07:27:24.571Z,75.12
2023-01-10T07:29:51.039Z,74.71
2023-01-10T07:32:17.592Z,74.52
2023-01-10T07:34:44.057Z,74.12
2023-01-10T07:37:10.504Z,73.62
2023-01-10T07:39:36.974Z,73.04
2023-01-10T07:42:03.539Z,74.36
2023-01-10T07:44:30.049Z,73.32
2023-01-10T07:46:56.594Z,74.21
2023-01-10T07:49:23.080Z,75.92
2023-01-10T07:51:49.540Z,75.73
2023-01-10T07:54:16.024Z,74.91
2023-01-10T07:56:42.516Z,74.04
2023-01-10T07:59:09.140Z,75.16
2023-01-10T08:01:35.632Z,72.93
2023-01-10T08:04:02.063Z,74.77
2023-01-10T08:06:28.543Z,75.57
2023-01-10T08:08:54.991Z,79.24
2023-01-10T08:11:21.454Z,82.13
2023-01-10T08:13:48.074Z,82.07
2023-01-10T08:16:14.954Z,80.13
2023-01-10T08:18:41.469Z,79.88
2023-01-10T08:21:07.980Z,81.66
2023-01-10T08:23:34.609Z,80.91
2023-01-10T08:26:01.619Z,80.02
2023-01-10T08:28:29.032Z,78.34
2023-01-10T08:30:55.604Z,77.10
2023-01-10T08:33:23.790Z,76.30
2023-01-10T08:35:51.143Z,74.54
2023-01-10T08:38:17.610Z,74.57
2023-01-10T08:40:44.083Z,73.06
2023-01-10T08:43:12.529Z,72.34
2023-01-10T08:45:39.755Z,69.99
2023-01-10T08:48:07.210Z,68.71
2023-01-10T08:50:33.692Z,68.42
2023-01-10T08:53:01.173Z,68.24
2023-01-10T08:55:28.995Z,67.85
2023-01-10T08:57:55.456Z,68.07
2023-01-10T09:00:22.532Z,66.58
2023-01-10T09:02:49.071Z,66.65
2023-01-10T09:05:27.033Z,66.13
2023-01-10T09:07:59.733Z,66.46
2023-01-10T09:10:26.846Z,65.56
2023-01-10T09:12:53.356Z,65.16
2023-01-10T09:15:19.980Z,66.15
2023-01-10T09:17:46.439Z,68.49
2023-01-10T09:20:12.908Z,68.04
2023-01-10T09:22:39.410Z,69.48
2023-01-10T09:25:09.081Z,70.15
2023-01-10T09:27:35.563Z,69.75
2023-01-10T09:30:02.050Z,69.44
2023-01-10T09:32:28.655Z,70.32
2023-01-10T09:34:55.125Z,72.59
2023-01-10T09:37:21.571Z,72.68
2023-01-10T09:39:48.040Z,71.10
2023-01-10T09:42:36.386Z,71.69
2023-01-10T09:45:37.924Z,72.50
2023-01-10T09:48:06.925Z,71.89
2023-01-10T09:51:08.457Z,70.46
2023-01-10T09:53:41.479Z,72.54
2023-01-10T09:56:09.307Z,71.40
2023-01-10T09:58:38.222Z,70.67
2023-01-10T10:01:10.283Z,71.77
2023-01-10T10:03:41.338Z,72.43
2023-01-10T10:06:12.917Z,73.70
2023-01-10T10:08:43.001Z,73.43
2023-01-10T10:11:28.368Z,72.76
2023-01-10T10:14:15.215Z,72.50
2023-01-10T10:16:50.712Z,72.42
2023-01-10T10:19:45.062Z,72.02
2023-01-10T10:22:34.401Z,70.24
2023-01-10T10:25:09.916Z,71.30
2023-01-10T10:28:08.280Z,71.94
2023-01-10T10:30:38.430Z,71.49
2023-01-10T10:33:20.442Z,71.15
2023-01-10T10:36:03.427Z,71.68
2023-01-10T10:38:38.993Z,73.44
2023-01-10T10:41:22.166Z,72.64
2023-01-10T10:43:49.169Z,72.67
2023-01-10T10:46:17.333Z,72.40
2023-01-10T10:48:50.974Z,71.77
2023-01-10T10:51:33.984Z,72.43
2023-01-10T10:54:00.626Z,69.10
2023-01-10T10:56:27.505Z,69.16
2023-01-10T10:58:59.605Z,69.10
2023-01-10T11:01:27.083Z,68.24
2023-01-10T11:04:05.991Z,68.82
2023-01-10T11:06:34.575Z,68.26
2023-01-10T11:09:04.289Z,67.46
2023-01-10T11:11:36.096Z,66.83
2023-01-10T11:14:06.601Z,67.40
2023-01-10T11:16:38.674Z,67.46
2023-01-10T11:19:17.483Z,66.28
2023-01-10T11:21:55.501Z,64.95
2023-01-10T11:24:35.837Z,65.83
2023-01-10T11:27:15.242Z,66.09
2023-01-10T11:29:51.421Z,64.91
2023-01-10T11:32:22.568Z,64.82
2023-01-10T11:34:56.656Z,64.55
2023-01-10T11:37:26.317Z,63.02
2023-01-10T11:40:17.284Z,62.48
2023-01-10T11:42:44.645Z,62.55
2023-01-10T11:45:17.103Z,63.80
2023-01-10T11:48:07.727Z,62.35
2023-01-10T11:50:50.953Z,63.46
2023-01-10T11:53:39.026Z,62.14
2023-01-10T11:56:07.295Z,62.68
2023-01-10T11:58:36.580Z,61.51
2023-01-10T12:01:03.142Z,59.66
2023-01-10T12:03:31.743Z,60.57
2023-01-10T12:06:17.975Z,60.02
2023-01-10T12:08:44.966Z,59.71
2023-01-10T12:11:17.545Z,59.81
2023-01-10T12:13:52.971Z,58.68
2023-01-10T12:16:23.812Z,58.46
2023-01-10T12:18:53.028Z,57.72
2023-01-10T12:21:26.506Z,58.54
2023-01-10T12:23:57.293Z,58.58
2023-01-10T12:26:29.490Z,58.00
2023-01-10T12:28:59.633Z,57.99
2023-01-10T12:31:30.078Z,58.21
2023-01-10T12:34:07.419Z,58.30
2023-01-10T12:36:48.866Z,59.01
2023-01-10T12:39:32.915Z,57.98
2023-01-10T12:42:09.525Z,58.70
2023-01-10T12:44:49.595Z,57.58
2023-01-10T12:47:25.043Z,57.36
2023-01-10T12:50:11.221Z,56.69
2023-01-10T12:53:02.730Z,55.41
2023-01-10T12:55:38.463Z,55.03
2023-01-10T12:58:05.599Z,54.51
2023-01-10T13:00:48.754Z,54.71
2023-01-10T13:03:20.976Z,53.13
2023-01-10T13:05:49.261Z,52.25
2023-01-10T13:08:20.123Z,51.66
2023-01-10T13:10:51.215Z,52.23
2023-01-10T13:13:38.516Z,51.00
2023-01-10T13:16:23.261Z,50.26
2023-01-10T13:19:16.085Z,50.20
2023-01-10T13:21:43.042Z,49.03
2023-01-10T13:24:15.895Z,49.20
2023-01-10T13:26:56.255Z,47.39
2023-01-10T13:29:42.210Z,47.57
2023-01-10T13:32:29.604Z,47.85
2023-01-10T13:35:13.711Z,48.49
2023-01-10T13:37:44.525Z,48.38
2023-01-10T13:40:25.932Z,47.57
2023-01-10T13:43:30.786Z,46.76
2023-01-10T13:46:15.137Z,46.75
2023-01-10T13:49:02.536Z,45.86
2023-01-10T13:51:31.709Z,44.75
2023-01-10T13:54:03.246Z,44.82
2023-01-10T13:56:35.650Z,45.86
2023-01-10T13:59:04.618Z,44.79
2023-01-10T14:01:38.596Z,43.87
2023-01-10T14:04:06.533Z,43.51
2023-01-10T14:06:38.059Z,44.12
2023-01-10T14:09:06.498Z,42.98
2023-01-10T14:11:44.761Z,42.90
2023-01-10T14:14:41.082Z,42.57
2023-01-10T14:17:12.541Z,41.74
2023-01-10T14:19:41.038Z,41.35
2023-01-10T14:22:25.198Z,40.91
2023-01-10T14:24:53.620Z,41.20
2023-01-10T14:27:21.805Z,41.26
2023-01-10T14:30:00.873Z,40.68
2023-01-10T14:32:35.982Z,41.61
2023-01-10T14:35:05.941Z,41.62
2023-01-10T14:37:54.987Z,41.90
2023-01-10T14:40:43.929Z,42.80
2023-01-10T14:43:17.828Z,43.08
2023-01-10T14:46:15.647Z,42.60
2023-01-10T14:48:51.219Z,44.11
2023-01-10T14:51:24.574Z,44.36
2023-01-10T14:54:00.236Z,45.09
2023-01-10T14:56:38.866Z,45.34
2023-01-10T14:59:24.072Z,45.98
2023-01-10T15:01:54.485Z,45.88
2023-01-10T15:04:23.718Z,46.47
2023-01-10T15:06:53.320Z,48.83
2023-01-10T15:09:19.955Z,48.69
2023-01-10T15:11:48.767Z,48.33
2023-01-10T15:14:18.783Z,48.51
2023-01-10T15:16:48.131Z,49.16
2023-01-10T15:19:21.990Z,49.70
2023-01-10T15:21:49.728Z,49.93
2023-01-10T15:24:33.134Z,50.11
2023-01-10T15:27:12.209Z,50.00
2023-01-10T15:29:43.681Z,50.68
2023-01-10T15:32:18.291Z,50.98
2023-01-10T15:34:51.117Z,50.90
2023-01-10T15:37:23.703Z,51.06
2023-01-10T15:39:50.210Z,51.26
2023-01-10T15:42:21.045Z,51.60
2023-01-10T15:44:49.808Z,51.44
2023-01-10T15:47:36.678Z,51.52
2023-01-10T15:50:25.552Z,51.75
2023-01-10T15:53:01.472Z,52.05
2023-01-10T15:55:41.583Z,52.00
2023-01-10T15:58:29.637Z,51.69
2023-01-10T16:00:59.742Z,51.76
2023-01-10T16:03:44.035Z,51.52
2023-01-10T16:06:31.290Z,51.97
2023-01-10T16:09:01.155Z,52.11
2023-01-10T16:11:39.295Z,52.31
2023-01-10T16:14:05.802Z,51.99
2023-01-10T16:16:32.577Z,51.69
2023-01-10T16:19:00.258Z,51.85
2023-01-10T16:21:35.493Z,52.05
2023-01-10T16:24:03.704Z,52.77
2023-01-10T16:26:30.499Z,52.36
2023-01-10T16:28:57.063Z,52.89
2023-01-10T16:31:23.644Z,53.10
2023-01-10T16:33:50.133Z,52.90
2023-01-10T16:36:18.619Z,53.20
2023-01-10T16:38:45.324Z,52.52
2023-01-10T16:41:14.045Z,52.79
2023-01-10T16:43:40.502Z,53.45
2023-01-10T16:46:07.140Z,53.24
2023-01-10T16:48:33.643Z,52.78
2023-01-10T16:51:23.377Z,52.47
2023-01-10T16:53:50.923Z,52.51
2023-01-10T16:56:20.988Z,53.20
2023-01-10T16:58:49.002Z,52.83
2023-01-10T17:01:18.942Z,53.44
2023-01-10T17:03:47.180Z,53.62
2023-01-10T17:06:14.928Z,53.62
2023-01-10T17:08:42.691Z,52.79
2023-01-10T17:11:22.580Z,52.97
2023-01-10T17:13:49.354Z,53.60
2023-01-10T17:16:18.567Z,54.00
2023-01-10T17:18:46.990Z,53.51
2023-01-10T17:21:16.947Z,53.83
2023-01-10T17:23:44.301Z,53.73
2023-01-10T17:26:13.257Z,53.72
2023-01-10T17:28:39.991Z,54.58
2023-01-10T17:31:07.693Z,54.43
2023-01-10T17:33:34.749Z,54.84
2023-01-10T17:36:01.271Z,55.28
2023-01-10T17:38:29.949Z,55.05
2023-01-10T17:40:59.166Z,55.22
2023-01-10T17:43:25.608Z,54.53
2023-01-10T17:45:52.247Z,54.56
2023-01-10T17:48:19.454Z,55.45
2023-01-10T17:50:48.535Z,54.85
2023-01-10T17:53:16.464Z,56.28
2023-01-10T17:55:46.938Z,55.51
2023-01-10T17:58:14.379Z,55.10
2023-01-10T18:00:40.887Z,55.68
2023-01-10T18:03:08.071Z,55.54
2023-01-10T18:05:34.964Z,56.64
2023-01-10T18:08:04.841Z,56.55
2023-01-10T18:10:32.560Z,56.35
2023-01-10T18:12:59.060Z,57.19
2023-01-10T18:15:26.334Z,57.81
2023-01-10T18:17:52.926Z,56.94
2023-01-10T18:20:19.660Z,57.03
2023-01-10T18:22:46.126Z,56.34
2023-01-10T18:25:12.676Z,57.25
2023-01-10T18:27:39.162Z,57.33
2023-01-10T18:30:06.227Z,57.83
2023-01-10T18:32:32.864Z,56.65
2023-01-10T18:34:59.323Z,57.37
2023-01-10T18:37:25.980Z,57.48
2023-01-10T18:39:52.453Z,57.40
2023-01-10T18:42:18.937Z,57.22
2023-01-10T18:44:45.445Z,56.38
2023-01-10T18:47:11.917Z,56.60
2023-01-10T18:49:38.412Z,56.26
2023-01-10T18:52:04.894Z,56.53
2023-01-10T18:54:31.392Z,57.40
2023-01-10T18:56:57.854Z,57.46
2023-01-10T18:59:24.350Z,56.89
2023-01-10T19:01:50.979Z,56.28
2023-01-10T19:04:17.510Z,56.38
2023-01-10T19:06:44.188Z,56.25
2023-01-10T19:09:10.919Z,56.24
2023-01-10T19:11:37.371Z,57.23
2023-01-10T19:14:04.166Z,57.84
2023-01-10T19:16:31.433Z,57.27
2023-01-10T19:19:00.648Z,58.30
2023-01-10T19:21:28.113Z,58.92
2023-01-10T19:24:00.247Z,57.90
2023-01-10T19:26:26.942Z,58.87
2023-01-10T19:28:53.739Z,58.07
2023-01-10T19:31:28.761Z,57.76
2023-01-10T19:33:59.432Z,57.41
2023-01-10T19:36:26.954Z,56.80
2023-01-10T19:38:58.453Z,56.86
2023-01-10T19:41:26.881Z,57.07
2023-01-10T19:44:02.270Z,56.84
2023-01-10T19:46:29.627Z,58.39
2023-01-10T19:48:56.293Z,56.95
2023-01-10T19:51:22.970Z,55.97
2023-01-10T19:53:49.514Z,55.71
2023-01-10T19:56:18.487Z,55.09
2023-01-10T19:58:45.663Z,54.65
2023-01-10T20:01:14.654Z,53.93
2023-01-10T20:03:42.007Z,55.15
2023-01-10T20:06:13.585Z,55.37
2023-01-10T20:08:41.318Z,55.15
2023-01-10T20:11:07.891Z,55.44
2023-01-10T20:13:37.277Z,55.59
2023-01-10T20:16:05.235Z,55.60
2023-01-10T20:18:32.147Z,55.52
2023-01-10T20:20:59.128Z,54.73
2023-01-10T20:23:25.638Z,55.00
2023-01-10T20:26:00.793Z,53.99
2023-01-10T20:28:28.161Z,53.20
2023-01-10T20:30:58.595Z,53.40
2023-01-10T20:33:25.567Z,53.28
2023-01-10T20:36:00.772Z,52.68
2023-01-10T20:38:28.622Z,53.99
2023-01-10T20:40:59.107Z,53.63
2023-01-10T20:43:26.622Z,54.12
2023-01-10T20:45:53.249Z,53.02
2023-01-10T20:48:20.079Z,54.64
2023-01-10T20:50:47.504Z,54.27
2023-01-10T20:53:15.093Z,54.14
2023-01-10T20:55:41.659Z,53.32
2023-01-10T20:58:09.650Z,54.42
2023-01-10T21:00:36.132Z,55.07
2023-01-10T21:03:02.918Z,54.70
2023-01-10T21:05:29.439Z,54.35
2023-01-10T21:07:55.988Z,53.67
2023-01-10T21:10:22.569Z,53.23
2023-01-10T21:12:49.174Z,52.85
2023-01-10T21:15:15.795Z,52.74
2023-01-10T21:17:42.263Z,52.15
2023-01-10T21:20:10.053Z,52.13
2023-01-10T21:22:36.604Z,51.95
2023-01-10T21:25:03.502Z,52.17
2023-01-10T21:27:30.004Z,51.34
2023-01-10T21:29:59.716Z,51.75
2023-01-10T21:32:26.565Z,51.39
2023-01-10T21:34:54.083Z,51.03
2023-01-10T21:37:20.537Z,51.89
2023-01-10T21:39:46.997Z,52.43
2023-01-10T21:42:13.461Z,52.20
2023-01-10T21:44:39.920Z,51.96
2023-01-10T21:47:06.642Z,52.53
2023-01-10T21:49:33.173Z,52.33
2023-01-10T21:51:59.663Z,52.50
2023-01-10T21:54:26.191Z,52.18
2023-01-10T21:56:52.657Z,51.58
2023-01-10T21:59:19.123Z,51.19
2023-01-10T22:01:46.858Z,51.15
2023-01-10T22:04:16.355Z,51.08
2023-01-10T22:06:43.769Z,50.89
2023-01-10T22:09:11.168Z,51.44
2023-01-10T22:11:37.665Z,51.14
2023-01-10T22:14:04.258Z,51.18
2023-01-10T22:16:30.897Z,51.06
2023-01-10T22:18:58.215Z,51.23
2023-01-10T22:21:24.691Z,51.14
2023-01-10T22:23:51.160Z,51.02
2023-01-10T22:26:17.619Z,50.99
2023-01-10T22:28:44.117Z,50.65
2023-01-10T22:31:11.111Z,50.16
2023-01-10T22:33:38.159Z,49.82
2023-01-10T22:36:05.668Z,49.44
2023-01-10T22:38:32.145Z,49.65
2023-01-10T22:41:06.511Z,49.80
2023-01-10T22:43:33.666Z,50.43
2023-01-10T22:46:00.228Z,49.60
2023-01-10T22:48:26.744Z,50.67
2023-01-10T22:50:53.211Z,50.14
2023-01-10T22:53:19.803Z,50.84
2023-01-10T22:55:46.668Z,51.20
2023-01-10T22:58:13.143Z,50.89
2023-01-10T23:00:39.590Z,50.99
2023-01-10T23:03:06.155Z,50.86
2023-01-10T23:05:32.622Z,50.96
2023-01-10T23:07:59.094Z,51.30
2023-01-10T23:10:30.712Z,50.73
2023-01-10T23:12:58.006Z,51.23
2023-01-10T23:15:24.620Z,50.84
2023-01-10T23:17:51.122Z,50.73
2023-01-10T23:20:17.656Z,50.19
2023-01-10T23:22:44.211Z,50.10
2023-01-10T23:25:10.832Z,49.98
2023-01-10T23:27:37.339Z,50.38
2023-01-10T23:30:09.010Z,50.42
2023-01-10T23:32:35.522Z,50.52
2023-01-10T23:35:02.326Z,50.81
2023-01-10T23:37:28.807Z,50.32
2023-01-10T23:39:55.284Z,51.22
2023-01-10T23:42:21.805Z,51.31
2023-01-10T23:44:48.277Z,50.94
2023-01-10T23:47:14.821Z,50.89
2023-01-10T23:49:41.297Z,51.04
2023-01-10T23:52:07.788Z,51.73
2023-01-10T23:54:34.299Z,51.61
2023-01-10T23:57:00.746Z,51.70
2023-01-10T23:59:27.244Z,51.82
